createdAt,value
2019-03-05T00:01:54.025Z,70.40
2019-03-05T00:04:22.256Z,70.70
2019-03-05T00:06:50.476Z,70.70
2019-03-05T00:09:20.335Z,70.20
2019-03-05T00:11:50.318Z,70.20
2019-03-05T00:14:18.949Z,69.90
2019-03-05T00:16:47.243Z,70.00
2019-03-05T00:19:15.458Z,70.30
2019-03-05T00:21:43.696Z,70.70
2019-03-05T00:24:48.816Z,70.50
2019-03-05T00:27:17.039Z,71.00
2019-03-05T00:29:48.516Z,70.80
2019-03-05T00:32:16.729Z,70.70
2019-03-05T00:34:53.740Z,71.20
2019-03-05T00:37:27.874Z,71.40
2019-03-05T00:40:17.230Z,71.40
2019-03-05T00:43:26.071Z,71.40
2019-03-05T00:46:09.622Z,71.40
2019-03-05T00:48:55.861Z,71.40
2019-03-05T00:51:53.107Z,71.30
2019-03-05T00:54:41.334Z,70.90
2019-03-05T00:57:12.826Z,70.90
2019-03-05T00:59:55.902Z,70.50
2019-03-05T01:02:46.745Z,70.10
2019-03-05T01:05:45.413Z,70.30
2019-03-05T01:08:13.634Z,70.60
2019-03-05T01:10:42.183Z,70.80
2019-03-05T01:13:10.649Z,70.50
2019-03-05T01:15:38.864Z,70.60
2019-03-05T01:18:07.097Z,70.90
2019-03-05T01:20:35.316Z,71.50
2019-03-05T01:23:03.583Z,72.50
2019-03-05T01:25:34.891Z,73.20
2019-03-05T01:28:03.129Z,74.00
2019-03-05T01:30:55.526Z,75.40
2019-03-05T01:33:25.424Z,76.30
2019-03-05T01:36:01.289Z,77.40
2019-03-05T01:38:31.141Z,78.30
2019-03-05T01:41:01.022Z,79.00
2019-03-05T01:43:29.238Z,79.60
2019-03-05T01:45:57.517Z,79.70
2019-03-05T01:48:25.720Z,79.90
2019-03-05T01:50:53.942Z,80.00
2019-03-05T01:53:22.163Z,80.30
2019-03-05T01:55:50.369Z,80.10
2019-03-05T01:58:18.592Z,80.30
2019-03-05T02:00:46.806Z,80.00
2019-03-05T02:03:15.046Z,80.00
2019-03-05T02:05:43.278Z,80.00
2019-03-05T02:08:11.512Z,79.90
2019-03-05T02:10:39.733Z,79.90
2019-03-05T02:13:07.946Z,80.20
2019-03-05T02:15:36.161Z,79.70
2019-03-05T02:18:04.401Z,79.70
2019-03-05T02:20:32.620Z,80.40
2019-03-05T02:23:07.035Z,79.00
2019-03-05T02:25:44.315Z,78.60
2019-03-05T02:28:38.649Z,78.60
2019-03-05T02:31:29.568Z,78.60
2019-03-05T02:34:06.856Z,78.30
2019-03-05T02:36:44.036Z,78.30
2019-03-05T02:39:27.510Z,78.20
2019-03-05T02:42:04.822Z,78.30
2019-03-05T02:44:54.395Z,77.90
2019-03-05T02:47:29.571Z,77.30
2019-03-05T02:50:12.386Z,77.50
2019-03-05T02:52:46.925Z,77.20
2019-03-05T02:55:27.543Z,77.20
2019-03-05T02:57:54.858Z,77.30
2019-03-05T03:00:24.728Z,77.30
2019-03-05T03:02:57.518Z,77.10
2019-03-05T03:05:27.394Z,76.70
2019-03-05T03:07:55.615Z,76.90
2019-03-05T03:10:23.843Z,76.90
2019-03-05T03:12:52.308Z,76.80
2019-03-05T03:15:20.546Z,76.60
2019-03-05T03:17:48.791Z,76.70
2019-03-05T03:20:17.154Z,76.50
2019-03-05T03:22:45.475Z,76.60
2019-03-05T03:25:16.157Z,76.50
2019-03-05T03:27:44.369Z,76.30
2019-03-05T03:30:15.103Z,76.30
2019-03-05T03:32:43.311Z,75.90
2019-03-05T03:35:13.291Z,75.20
2019-03-05T03:37:41.493Z,74.70
2019-03-05T03:40:12.472Z,74.70
2019-03-05T03:42:40.686Z,74.20
2019-03-05T03:45:14.288Z,74.30
2019-03-05T03:47:42.667Z,75.10
2019-03-05T03:50:10.970Z,76.30
2019-03-05T03:52:39.167Z,77.90
2019-03-05T03:55:10.245Z,79.30
2019-03-05T03:57:38.475Z,80.90
2019-03-05T04:00:12.653Z,82.60
2019-03-05T04:02:40.875Z,84.10
2019-03-05T04:05:09.107Z,83.50
2019-03-05T04:07:37.327Z,83.90
2019-03-05T04:10:10.902Z,83.80
2019-03-05T04:12:39.467Z,84.10
2019-03-05T04:15:11.629Z,83.70
2019-03-05T04:17:40.242Z,83.00
2019-03-05T04:20:10.805Z,83.20
2019-03-05T04:22:39.025Z,81.70
2019-03-05T04:25:09.023Z,81.20
2019-03-05T04:27:37.243Z,80.70
2019-03-05T04:30:11.686Z,79.80
2019-03-05T04:32:39.936Z,79.70
2019-03-05T04:35:11.041Z,78.70
2019-03-05T04:37:39.262Z,78.60
2019-03-05T04:40:11.386Z,78.50
2019-03-05T04:42:39.611Z,78.20
2019-03-05T04:45:28.664Z,78.40
2019-03-05T04:47:56.880Z,78.20
2019-03-05T04:50:26.745Z,77.60
2019-03-05T04:52:54.985Z,78.30
2019-03-05T04:55:23.213Z,77.90
2019-03-05T04:57:51.434Z,77.80
2019-03-05T05:00:19.997Z,77.60
2019-03-05T05:02:48.490Z,77.30
2019-03-05T05:05:16.972Z,77.10
2019-03-05T05:07:45.209Z,77.40
2019-03-05T05:10:13.450Z,77.50
2019-03-05T05:12:41.676Z,77.80
2019-03-05T05:15:32.937Z,77.60
2019-03-05T05:18:01.159Z,78.30
2019-03-05T05:20:29.371Z,79.70
2019-03-05T05:22:57.597Z,80.30
2019-03-05T05:25:25.809Z,79.70
2019-03-05T05:27:54.030Z,79.60
2019-03-05T05:30:41.634Z,80.10
2019-03-05T05:33:09.862Z,80.20
2019-03-05T05:35:38.107Z,80.30
2019-03-05T05:38:06.490Z,79.60
2019-03-05T05:40:39.666Z,80.10
2019-03-05T05:43:13.404Z,79.60
2019-03-05T05:45:43.763Z,78.40
2019-03-05T05:48:11.979Z,79.10
2019-03-05T05:50:40.177Z,79.00
2019-03-05T05:53:08.782Z,79.30
2019-03-05T05:55:37.008Z,79.30
2019-03-05T05:58:05.258Z,78.80
2019-03-05T06:00:35.162Z,78.90
2019-03-05T06:03:03.397Z,79.20
2019-03-05T06:05:31.614Z,79.00
2019-03-05T06:07:59.839Z,79.30
2019-03-05T06:10:28.078Z,79.50
2019-03-05T06:12:56.301Z,80.00
2019-03-05T06:15:24.517Z,80.00
2019-03-05T06:17:52.741Z,80.00
2019-03-05T06:20:21.143Z,79.40
2019-03-05T06:22:49.631Z,79.30
2019-03-05T06:25:17.850Z,79.90
2019-03-05T06:27:46.140Z,80.20
2019-03-05T06:30:21.728Z,80.60
2019-03-05T06:32:49.988Z,82.10
2019-03-05T06:35:18.231Z,83.20
2019-03-05T06:37:46.459Z,84.40
2019-03-05T06:40:25.815Z,85.00
2019-03-05T06:42:54.019Z,85.60
2019-03-05T06:45:28.472Z,86.10
2019-03-05T06:47:56.682Z,87.30
2019-03-05T06:50:26.231Z,87.40
2019-03-05T06:52:54.456Z,86.60
2019-03-05T06:55:23.003Z,87.10
2019-03-05T06:57:51.215Z,87.50
2019-03-05T07:00:38.733Z,88.40
2019-03-05T07:03:08.578Z,88.70
2019-03-05T07:06:13.969Z,88.10
2019-03-05T07:08:45.448Z,88.50
2019-03-05T07:11:17.004Z,88.50
2019-03-05T07:13:46.937Z,89.10
2019-03-05T07:16:30.727Z,88.70
2019-03-05T07:19:00.375Z,89.70
2019-03-05T07:21:57.577Z,89.70
2019-03-05T07:24:45.319Z,90.20
2019-03-05T07:27:15.714Z,90.60
2019-03-05T07:29:43.934Z,90.40
2019-03-05T07:32:12.147Z,90.30
2019-03-05T07:34:42.033Z,90.60
2019-03-05T07:37:11.129Z,90.60
2019-03-05T07:39:39.334Z,90.30
2019-03-05T07:42:07.574Z,90.40
2019-03-05T07:44:36.134Z,90.70
2019-03-05T07:47:04.441Z,90.70
2019-03-05T07:49:43.225Z,90.60
2019-03-05T07:52:02.593Z,90.50
2019-03-05T07:54:30.824Z,90.50
2019-03-05T07:56:59.023Z,91.10
2019-03-05T07:59:30.125Z,90.50
2019-03-05T08:01:58.489Z,90.00
2019-03-05T08:04:26.842Z,90.10
2019-03-05T08:06:55.375Z,90.30
2019-03-05T08:09:34.847Z,90.10
2019-03-05T08:12:18.636Z,90.20
2019-03-05T08:14:53.043Z,90.20
2019-03-05T08:17:21.751Z,89.50
2019-03-05T08:19:49.981Z,89.80
2019-03-05T08:22:18.213Z,89.80
2019-03-05T08:24:46.447Z,88.00
2019-03-05T08:27:14.662Z,87.70
2019-03-05T08:29:42.897Z,87.70
2019-03-05T08:32:11.113Z,87.50
2019-03-05T08:34:39.354Z,88.30
2019-03-05T08:37:07.577Z,87.40
2019-03-05T08:39:35.786Z,87.50
2019-03-05T08:42:04.080Z,87.30
2019-03-05T08:44:32.289Z,87.60
2019-03-05T08:47:00.698Z,88.00
2019-03-05T08:49:28.912Z,86.90
2019-03-05T08:51:57.135Z,87.50
2019-03-05T08:54:25.357Z,87.00
2019-03-05T08:56:53.598Z,86.90
2019-03-05T08:59:21.839Z,87.70
2019-03-05T09:01:50.099Z,86.80
2019-03-05T09:04:18.366Z,86.20
2019-03-05T09:06:46.627Z,86.70
2019-03-05T09:09:15.851Z,87.00
2019-03-05T09:11:44.063Z,87.50
2019-03-05T09:14:12.286Z,88.10
2019-03-05T09:16:40.813Z,88.40
2019-03-05T09:19:09.039Z,88.50
2019-03-05T09:21:37.255Z,88.60
2019-03-05T09:24:05.465Z,86.20
2019-03-05T09:26:33.736Z,87.00
2019-03-05T09:29:01.977Z,86.00
2019-03-05T09:31:30.199Z,85.40
2019-03-05T09:33:58.417Z,86.20
2019-03-05T09:36:51.034Z,84.10
2019-03-05T09:39:16.063Z,83.70
2019-03-05T09:41:44.282Z,84.00
2019-03-05T09:44:12.505Z,82.50
2019-03-05T09:46:40.724Z,83.20
2019-03-05T09:49:08.960Z,83.30
2019-03-05T09:51:37.174Z,83.50
2019-03-05T09:54:05.394Z,82.90
2019-03-05T09:56:33.637Z,82.90
2019-03-05T09:59:01.862Z,82.20
2019-03-05T10:01:30.346Z,82.30
2019-03-05T10:03:58.565Z,82.50
2019-03-05T10:06:26.809Z,81.90
2019-03-05T10:08:55.022Z,82.10
2019-03-05T10:11:23.292Z,81.70
2019-03-05T10:13:51.524Z,81.30
2019-03-05T10:16:19.755Z,81.90
2019-03-05T10:18:48.271Z,81.80
2019-03-05T10:21:16.522Z,81.70
2019-03-05T10:23:44.803Z,81.30
2019-03-05T10:26:13.051Z,81.60
2019-03-05T10:31:30.312Z,81.30
2019-03-05T10:33:58.524Z,80.50
2019-03-05T10:36:27.134Z,81.30
2019-03-05T10:38:57.599Z,80.40
2019-03-05T10:41:25.390Z,79.80
2019-03-05T10:43:53.695Z,79.30
2019-03-05T10:46:22.263Z,79.10
2019-03-05T10:48:50.864Z,79.10
2019-03-05T10:51:19.165Z,78.20
2019-03-05T10:53:47.404Z,77.70
2019-03-05T10:56:15.693Z,78.10
2019-03-05T10:58:43.911Z,78.10
2019-03-05T11:01:12.557Z,78.90
2019-03-05T11:03:40.769Z,77.80
2019-03-05T11:06:09.016Z,78.10
2019-03-05T11:08:37.243Z,78.10
2019-03-05T11:11:13.374Z,78.60
2019-03-05T11:13:35.406Z,77.50
2019-03-05T11:16:05.441Z,76.90
2019-03-05T11:18:33.730Z,76.90
2019-03-05T11:21:01.979Z,76.60
2019-03-05T11:23:30.249Z,76.10
2019-03-05T11:25:58.564Z,75.80
2019-03-05T11:28:26.789Z,76.90
2019-03-05T11:30:55.020Z,75.20
2019-03-05T11:33:23.253Z,74.80
2019-03-05T11:35:51.515Z,73.70
2019-03-05T11:38:19.968Z,72.80
2019-03-05T11:40:48.211Z,71.00
2019-03-05T11:43:17.390Z,72.00
2019-03-05T11:45:45.675Z,72.00
2019-03-05T11:48:14.432Z,72.80
2019-03-05T11:50:42.674Z,71.30
2019-03-05T11:53:10.906Z,70.20
2019-03-05T11:55:39.178Z,67.60
2019-03-05T11:58:07.475Z,66.00
2019-03-05T12:00:54.001Z,63.10
2019-03-05T12:03:22.372Z,62.70
2019-03-05T12:05:50.580Z,64.90
2019-03-05T12:08:19.151Z,66.50
2019-03-05T12:10:47.376Z,68.50
2019-03-05T12:13:15.683Z,69.70
2019-03-05T12:15:45.132Z,69.50
2019-03-05T12:18:13.736Z,69.90
2019-03-05T12:20:42.007Z,68.60
2019-03-05T12:23:11.685Z,67.80
2019-03-05T12:25:41.075Z,66.20
2019-03-05T12:28:10.884Z,65.20
2019-03-05T12:30:39.784Z,67.00
2019-03-05T12:33:08.093Z,67.00
2019-03-05T12:35:36.327Z,67.70
2019-03-05T12:38:04.716Z,69.00
2019-03-05T12:40:33.060Z,77.80
2019-03-05T12:43:01.328Z,81.20
2019-03-05T12:45:29.623Z,78.70
2019-03-05T12:47:57.895Z,73.30
2019-03-05T12:50:27.665Z,72.00
2019-03-05T12:52:56.632Z,73.40
2019-03-05T12:55:25.097Z,73.10
2019-03-05T12:57:53.343Z,73.20
2019-03-05T13:00:24.221Z,74.20
2019-03-05T13:02:52.483Z,72.60
2019-03-05T13:05:20.820Z,73.50
2019-03-05T13:07:52.590Z,70.20
2019-03-05T13:10:27.169Z,67.30
2019-03-05T13:12:55.382Z,67.70
2019-03-05T13:15:31.663Z,70.90
2019-03-05T13:17:59.999Z,71.40
2019-03-05T13:20:28.327Z,69.50
2019-03-05T13:22:56.634Z,64.00
2019-03-05T13:25:28.409Z,66.20
2019-03-05T13:27:57.550Z,68.40
2019-03-05T13:30:26.967Z,68.50
2019-03-05T13:32:59.046Z,69.80
2019-03-05T13:35:30.104Z,70.20
2019-03-05T13:37:58.815Z,66.50
2019-03-05T13:40:30.274Z,62.10
2019-03-05T13:42:59.694Z,62.40
2019-03-05T13:45:28.161Z,60.30
2019-03-05T13:48:23.584Z,64.10
2019-03-05T13:51:09.734Z,65.80
2019-03-05T13:53:41.228Z,65.00
2019-03-05T13:56:33.095Z,64.70
2019-03-05T13:59:34.348Z,65.00
2019-03-05T14:02:02.554Z,63.20
2019-03-05T14:04:34.031Z,60.60
2019-03-05T14:07:27.782Z,56.90
2019-03-05T14:09:56.129Z,58.30
2019-03-05T14:12:24.494Z,58.80
2019-03-05T14:14:52.758Z,58.50
2019-03-05T14:17:22.414Z,58.80
2019-03-05T14:19:50.648Z,58.00
2019-03-05T14:22:18.846Z,57.80
2019-03-05T14:24:47.070Z,58.30
2019-03-05T14:27:15.294Z,59.00
2019-03-05T14:29:43.568Z,56.50
2019-03-05T14:32:11.803Z,55.90
2019-03-05T14:34:40.076Z,56.60
2019-03-05T14:37:08.348Z,58.10
2019-03-05T14:39:36.716Z,59.20
2019-03-05T14:42:06.618Z,59.90
2019-03-05T14:44:39.766Z,59.50
2019-03-05T14:47:05.739Z,58.70
2019-03-05T14:49:34.105Z,57.10
2019-03-05T14:52:02.760Z,56.80
2019-03-05T14:54:30.997Z,56.50
2019-03-05T14:56:59.366Z,57.20
2019-03-05T14:59:27.628Z,57.90
2019-03-05T15:01:55.936Z,56.40
2019-03-05T15:04:24.183Z,55.30
2019-03-05T15:06:52.734Z,55.50
2019-03-05T15:09:21.034Z,56.30
2019-03-05T15:11:49.339Z,57.20
2019-03-05T15:14:17.638Z,57.30
2019-03-05T15:16:45.938Z,57.20
2019-03-05T15:19:21.388Z,57.20
2019-03-05T15:21:44.488Z,56.40
2019-03-05T15:24:12.695Z,57.00
2019-03-05T15:26:40.907Z,57.20
2019-03-05T15:29:09.133Z,57.60
2019-03-05T15:31:37.448Z,57.60
2019-03-05T15:34:05.703Z,57.80
2019-03-05T15:36:34.045Z,56.90
2019-03-05T15:39:02.633Z,55.80
2019-03-05T15:41:31.072Z,55.60
2019-03-05T15:43:59.743Z,55.80
2019-03-05T15:46:28.041Z,56.00
2019-03-05T15:48:56.321Z,55.60
2019-03-05T15:51:24.675Z,54.90
2019-03-05T15:53:52.942Z,55.10
2019-03-05T15:56:21.212Z,55.60
2019-03-05T15:58:49.509Z,55.70
2019-03-05T16:01:22.197Z,56.00
2019-03-05T16:03:47.697Z,56.50
2019-03-05T16:06:15.931Z,54.80
2019-03-05T16:08:44.245Z,55.00
2019-03-05T16:11:12.457Z,55.20
2019-03-05T16:13:40.759Z,55.60
2019-03-05T16:16:09.094Z,56.00
2019-03-05T16:18:39.117Z,56.30
2019-03-05T16:21:07.639Z,56.20
2019-03-05T16:23:36.072Z,56.10
2019-03-05T16:26:04.496Z,57.00
2019-03-05T16:28:32.726Z,57.50
2019-03-05T16:31:02.870Z,58.20
2019-03-05T16:33:38.697Z,58.30
2019-03-05T16:36:08.705Z,58.20
2019-03-05T16:38:55.042Z,58.20
2019-03-05T16:41:42.133Z,58.40
2019-03-05T16:44:23.904Z,57.90
2019-03-05T16:47:05.788Z,57.60
2019-03-05T16:49:44.511Z,58.40
2019-03-05T16:52:14.727Z,58.20
2019-03-05T16:54:54.075Z,58.30
2019-03-05T16:57:24.237Z,58.70
2019-03-05T16:59:57.254Z,59.00
2019-03-05T17:02:39.243Z,59.20
2019-03-05T17:05:30.123Z,59.40
2019-03-05T17:08:27.945Z,59.80
2019-03-05T17:10:57.809Z,60.30
2019-03-05T17:13:26.054Z,60.70
2019-03-05T17:15:54.252Z,61.10
2019-03-05T17:18:22.506Z,61.70
2019-03-05T17:20:51.044Z,62.50
2019-03-05T17:23:19.271Z,62.90
2019-03-05T17:25:47.501Z,63.10
2019-03-05T17:28:15.705Z,63.50
2019-03-05T17:30:43.937Z,64.00
2019-03-05T17:33:12.143Z,64.30
2019-03-05T17:35:40.392Z,64.30
2019-03-05T17:38:08.637Z,64.10
2019-03-05T17:40:37.126Z,64.20
2019-03-05T17:43:05.364Z,64.40
2019-03-05T17:45:33.587Z,64.70
2019-03-05T17:48:01.799Z,65.10
2019-03-05T17:50:30.039Z,65.60
2019-03-05T17:52:58.289Z,65.90
2019-03-05T17:55:27.923Z,66.40
2019-03-05T17:57:56.233Z,66.60
2019-03-05T18:00:26.448Z,66.90
2019-03-05T18:02:54.822Z,66.90
2019-03-05T18:05:23.056Z,67.40
2019-03-05T18:07:51.566Z,67.70
2019-03-05T18:10:20.078Z,68.00
2019-03-05T18:12:48.290Z,68.50
2019-03-05T18:15:16.967Z,68.80
2019-03-05T18:17:45.518Z,69.00
2019-03-05T18:20:17.907Z,69.20
2019-03-05T18:22:46.379Z,69.20
2019-03-05T18:25:15.449Z,69.30
2019-03-05T18:27:43.662Z,69.20
2019-03-05T18:30:20.325Z,69.30
2019-03-05T18:32:48.610Z,69.40
2019-03-05T18:35:16.888Z,69.10
2019-03-05T18:37:45.362Z,69.30
2019-03-05T18:40:17.871Z,69.70
2019-03-05T18:42:46.096Z,69.80
2019-03-05T18:45:23.018Z,69.70
2019-03-05T18:47:51.219Z,69.60
2019-03-05T18:50:21.074Z,69.30
2019-03-05T18:52:51.145Z,69.30
2019-03-05T18:55:21.767Z,69.50
2019-03-05T18:57:50.059Z,69.70
2019-03-05T19:00:24.663Z,69.90
2019-03-05T19:02:55.092Z,70.20
2019-03-05T19:05:23.561Z,70.70
2019-03-05T19:07:52.156Z,70.90
2019-03-05T19:10:24.515Z,71.60
2019-03-05T19:12:52.722Z,71.90
2019-03-05T19:15:27.697Z,72.30
2019-03-05T19:17:55.914Z,72.40
2019-03-05T19:20:28.373Z,72.70
2019-03-05T19:22:56.737Z,72.80
2019-03-05T19:25:29.981Z,73.10
2019-03-05T19:27:58.496Z,73.30
2019-03-05T19:30:37.488Z,73.60
2019-03-05T19:33:05.756Z,73.70
2019-03-05T19:35:34.792Z,74.60
2019-03-05T19:38:03.032Z,74.20
2019-03-05T19:40:38.418Z,74.10
2019-03-05T19:43:06.984Z,74.50
2019-03-05T19:45:35.689Z,74.90
2019-03-05T19:48:04.566Z,75.00
2019-03-05T19:50:32.789Z,75.30
2019-03-05T19:53:01.206Z,75.40
2019-03-05T19:55:30.176Z,75.40
2019-03-05T19:58:15.059Z,75.00
2019-03-05T20:00:57.702Z,75.00
2019-03-05T20:03:26.369Z,75.40
2019-03-05T20:05:54.581Z,75.70
2019-03-05T20:08:22.826Z,75.60
2019-03-05T20:10:51.103Z,76.00
2019-03-05T20:13:19.330Z,75.90
2019-03-05T20:15:47.663Z,76.10
2019-03-05T20:18:15.888Z,76.40
2019-03-05T20:20:44.100Z,76.60
2019-03-05T20:23:12.331Z,76.60
2019-03-05T20:25:40.824Z,76.80
2019-03-05T20:28:09.090Z,76.70
2019-03-05T20:30:37.318Z,76.90
2019-03-05T20:33:05.864Z,77.00
2019-03-05T20:35:34.096Z,77.10
2019-03-05T20:38:03.987Z,77.20
2019-03-05T20:40:32.472Z,76.40
2019-03-05T20:43:02.681Z,76.90
2019-03-05T20:45:48.242Z,77.00
2019-03-05T20:48:16.750Z,77.10
2019-03-05T20:50:44.986Z,77.50
2019-03-05T20:53:13.213Z,77.70
2019-03-05T20:55:41.436Z,77.90
2019-03-05T20:58:09.750Z,78.00
2019-03-05T21:00:39.113Z,78.20
2019-03-05T21:03:09.838Z,78.10
2019-03-05T21:05:40.961Z,78.30
2019-03-05T21:08:09.230Z,78.60
2019-03-05T21:10:37.453Z,78.90
2019-03-05T21:13:05.685Z,79.20
2019-03-05T21:15:35.351Z,79.50
2019-03-05T21:18:06.367Z,79.60
2019-03-05T21:20:34.850Z,79.90
2019-03-05T21:23:03.070Z,80.10
2019-03-05T21:25:31.688Z,80.00
2019-03-05T21:27:59.915Z,79.90
2019-03-05T21:30:28.687Z,79.90
2019-03-05T21:32:56.922Z,79.90
2019-03-05T21:35:25.143Z,80.20
2019-03-05T21:37:53.638Z,80.40
2019-03-05T21:40:26.205Z,80.70
2019-03-05T21:42:54.511Z,80.90
2019-03-05T21:45:34.375Z,81.30
2019-03-05T21:48:02.920Z,81.50
2019-03-05T21:50:31.272Z,82.00
2019-03-05T21:52:59.581Z,82.20
2019-03-05T21:55:27.795Z,82.50
2019-03-05T21:57:56.071Z,82.60
2019-03-05T22:00:32.851Z,82.90
2019-03-05T22:03:01.918Z,83.00
2019-03-05T22:05:30.412Z,83.10
2019-03-05T22:07:58.673Z,83.70
2019-03-05T22:10:26.879Z,83.00
2019-03-05T22:12:55.107Z,82.90
2019-03-05T22:15:30.770Z,83.00
2019-03-05T22:17:58.986Z,83.10
2019-03-05T22:20:27.230Z,83.00
2019-03-05T22:22:55.445Z,82.90
2019-03-05T22:25:24.406Z,83.00
2019-03-05T22:27:52.616Z,82.90
2019-03-05T22:30:32.474Z,82.90
2019-03-05T22:33:00.683Z,82.70
2019-03-05T22:35:29.181Z,82.60
2019-03-05T22:37:57.396Z,82.60
2019-03-05T22:40:26.655Z,82.60
2019-03-05T22:42:54.933Z,82.50
2019-03-05T22:45:29.275Z,82.60
2019-03-05T22:47:57.546Z,82.70
2019-03-05T22:50:25.771Z,82.70
2019-03-05T22:52:54.004Z,82.80
2019-03-05T22:55:22.269Z,82.60
2019-03-05T22:57:50.542Z,82.60
2019-03-05T23:00:23.693Z,82.80
2019-03-05T23:02:51.929Z,82.70
2019-03-05T23:05:20.153Z,82.80
2019-03-05T23:07:48.365Z,82.80
2019-03-05T23:10:17.239Z,82.90
2019-03-05T23:12:45.721Z,82.80
2019-03-05T23:15:15.675Z,82.90
2019-03-05T23:17:43.881Z,82.90
2019-03-05T23:20:16.349Z,82.90
2019-03-05T23:22:44.924Z,82.80
2019-03-05T23:25:14.700Z,82.80
2019-03-05T23:27:42.903Z,82.80
2019-03-05T23:30:13.254Z,83.70
2019-03-05T23:32:41.470Z,83.10
2019-03-05T23:35:11.810Z,83.30
2019-03-05T23:37:40.466Z,83.10
2019-03-05T23:40:10.008Z,83.00
2019-03-05T23:42:38.223Z,83.10
2019-03-05T23:45:09.448Z,83.00
2019-03-05T23:47:37.910Z,83.30
2019-03-05T23:50:08.605Z,83.00
2019-03-05T23:52:36.875Z,82.90
2019-03-05T23:55:05.671Z,82.90
2019-03-05T23:57:33.959Z,82.80
